sensor_id;sensor_type;location;lat;lon;timestamp;pressure;altitude;pressure_sealevel;temperature;humidity
70921;BME280;58572;48.110;19.838;2023-07-29T00:01:56;97392.44;;;20.25;75.72
70921;BME280;58572;48.110;19.838;2023-07-29T00:04:24;97357.09;;;20.15;75.26
70921;BME280;58572;48.110;19.838;2023-07-29T00:06:51;97392.22;;;20.50;74.80
70921;BME280;58572;48.110;19.838;2023-07-29T00:09:18;97396.69;;;20.38;75.35
70921;BME280;58572;48.110;19.838;2023-07-29T00:11:45;97394.38;;;20.40;75.51
70921;BME280;58572;48.110;19.838;2023-07-29T00:14:12;97359.84;;;20.15;75.19
70921;BME280;58572;48.110;19.838;2023-07-29T00:16:41;97397.22;;;20.28;75.49
70921;BME280;58572;48.110;19.838;2023-07-29T00:19:09;97391.63;;;20.40;74.96
70921;BME280;58572;48.110;19.838;2023-07-29T00:21:36;97390.47;;;20.42;74.76
70921;BME280;58572;48.110;19.838;2023-07-29T00:24:03;97386.28;;;20.67;74.48
70921;BME280;58572;48.110;19.838;2023-07-29T00:26:30;97384.75;;;20.50;74.66
70921;BME280;58572;48.110;19.838;2023-07-29T00:28:57;97387.94;;;20.36;75.26
70921;BME280;58572;48.110;19.838;2023-07-29T00:31:24;97387.50;;;20.34;75.51
70921;BME280;58572;48.110;19.838;2023-07-29T00:33:53;97384.84;;;20.38;75.55
70921;BME280;58572;48.110;19.838;2023-07-29T00:36:20;97372.09;;;20.33;75.02
70921;BME280;58572;48.110;19.838;2023-07-29T00:38:47;97374.16;;;20.36;74.71
70921;BME280;58572;48.110;19.838;2023-07-29T00:41:15;97373.06;;;20.57;76.29
70921;BME280;58572;48.110;19.838;2023-07-29T00:43:42;97371.88;;;20.58;74.28
70921;BME280;58572;48.110;19.838;2023-07-29T00:46:09;97375.97;;;20.13;77.41
70921;BME280;58572;48.110;19.838;2023-07-29T00:48:38;97369.63;;;20.28;75.48
70921;BME280;58572;48.110;19.838;2023-07-29T00:51:07;97363.19;;;19.89;77.50
70921;BME280;58572;48.110;19.838;2023-07-29T00:53:34;97351.06;;;19.94;77.74
70921;BME280;58572;48.110;19.838;2023-07-29T00:56:01;97360.31;;;19.54;85.06
70921;BME280;58572;48.110;19.838;2023-07-29T00:58:28;97357.56;;;19.86;78.01
70921;BME280;58572;48.110;19.838;2023-07-29T01:00:56;97358.22;;;20.30;76.40
70921;BME280;58572;48.110;19.838;2023-07-29T01:03:23;97358.81;;;20.04;77.60
70921;BME280;58572;48.110;19.838;2023-07-29T01:06:01;97363.59;;;19.75;79.47
70921;BME280;58572;48.110;19.838;2023-07-29T01:08:40;97367.59;;;20.25;76.38
70921;BME280;58572;48.110;19.838;2023-07-29T01:11:18;97369.47;;;20.21;76.12
70921;BME280;58572;48.110;19.838;2023-07-29T01:13:51;97369.38;;;19.70;79.34
70921;BME280;58572;48.110;19.838;2023-07-29T01:16:23;97368.56;;;19.70;80.70
70921;BME280;58572;48.110;19.838;2023-07-29T01:18:53;97359.91;;;18.96;90.35
70921;BME280;58572;48.110;19.838;2023-07-29T01:21:22;97349.94;;;19.51;84.53
70921;BME280;58572;48.110;19.838;2023-07-29T01:23:58;97346.13;;;18.96;90.89
70921;BME280;58572;48.110;19.838;2023-07-29T01:26:25;97348.84;;;19.84;80.35
70921;BME280;58572;48.110;19.838;2023-07-29T01:28:55;97348.66;;;19.76;83.13
70921;BME280;58572;48.110;19.838;2023-07-29T01:31:27;97359.25;;;19.31;87.62
70921;BME280;58572;48.110;19.838;2023-07-29T01:33:59;97351.44;;;19.33;86.49
70921;BME280;58572;48.110;19.838;2023-07-29T01:36:32;97356.63;;;19.50;85.47
70921;BME280;58572;48.110;19.838;2023-07-29T01:39:02;97346.97;;;19.12;89.97
70921;BME280;58572;48.110;19.838;2023-07-29T01:41:30;97347.75;;;19.13;90.39
70921;BME280;58572;48.110;19.838;2023-07-29T01:43:57;97351.88;;;19.79;81.58
70921;BME280;58572;48.110;19.838;2023-07-29T01:46:25;97361.91;;;20.02;79.31
70921;BME280;58572;48.110;19.838;2023-07-29T01:48:52;97362.00;;;20.06;78.74
70921;BME280;58572;48.110;19.838;2023-07-29T01:51:20;97349.91;;;19.95;78.46
70921;BME280;58572;48.110;19.838;2023-07-29T01:53:48;97359.00;;;19.95;78.56
70921;BME280;58572;48.110;19.838;2023-07-29T01:56:16;97359.59;;;19.57;83.84
70921;BME280;58572;48.110;19.838;2023-07-29T01:58:43;97342.56;;;18.96;87.60
70921;BME280;58572;48.110;19.838;2023-07-29T02:01:10;97352.22;;;19.61;80.70
70921;BME280;58572;48.110;19.838;2023-07-29T02:03:38;97349.00;;;19.59;84.15
70921;BME280;58572;48.110;19.838;2023-07-29T02:06:05;97341.03;;;19.86;79.23
70921;BME280;58572;48.110;19.838;2023-07-29T02:08:32;97347.69;;;20.00;78.16
70921;BME280;58572;48.110;19.838;2023-07-29T02:10:59;97350.78;;;19.99;78.18
70921;BME280;58572;48.110;19.838;2023-07-29T02:13:28;97355.41;;;20.11;78.51
70921;BME280;58572;48.110;19.838;2023-07-29T02:15:55;97353.47;;;19.80;79.13
70921;BME280;58572;48.110;19.838;2023-07-29T02:18:22;97362.66;;;19.40;82.97
70921;BME280;58572;48.110;19.838;2023-07-29T02:20:49;97359.69;;;19.17;82.26
70921;BME280;58572;48.110;19.838;2023-07-29T02:23:16;97361.25;;;19.46;80.94
70921;BME280;58572;48.110;19.838;2023-07-29T02:25:44;97366.75;;;19.46;80.31
70921;BME280;58572;48.110;19.838;2023-07-29T02:28:11;97365.19;;;19.76;78.82
70921;BME280;58572;48.110;19.838;2023-07-29T02:30:41;97356.69;;;19.82;78.32
70921;BME280;58572;48.110;19.838;2023-07-29T02:33:10;97368.50;;;19.66;79.24
70921;BME280;58572;48.110;19.838;2023-07-29T02:35:37;97361.63;;;19.60;80.38
70921;BME280;58572;48.110;19.838;2023-07-29T02:38:04;97371.91;;;18.51;88.30
70921;BME280;58572;48.110;19.838;2023-07-29T02:40:31;97363.88;;;19.27;81.84
70921;BME280;58572;48.110;19.838;2023-07-29T02:42:58;97363.25;;;19.61;79.55
70921;BME280;58572;48.110;19.838;2023-07-29T02:45:25;97360.53;;;19.49;80.09
70921;BME280;58572;48.110;19.838;2023-07-29T02:47:54;97360.50;;;19.77;78.21
70921;BME280;58572;48.110;19.838;2023-07-29T02:50:21;97362.47;;;19.33;82.07
70921;BME280;58572;48.110;19.838;2023-07-29T02:52:48;97377.06;;;19.49;79.98
70921;BME280;58572;48.110;19.838;2023-07-29T02:55:15;97372.94;;;19.71;78.69
70921;BME280;58572;48.110;19.838;2023-07-29T02:57:42;97367.06;;;19.57;79.66
70921;BME280;58572;48.110;19.838;2023-07-29T03:00:11;97372.50;;;19.69;79.03
70921;BME280;58572;48.110;19.838;2023-07-29T03:02:38;97367.34;;;19.67;78.81
70921;BME280;58572;48.110;19.838;2023-07-29T03:05:08;97369.31;;;19.83;77.72
70921;BME280;58572;48.110;19.838;2023-07-29T03:07:35;97375.34;;;20.04;76.66
70921;BME280;58572;48.110;19.838;2023-07-29T03:10:02;97381.06;;;20.11;75.93
70921;BME280;58572;48.110;19.838;2023-07-29T03:12:29;97383.16;;;19.70;77.66
70921;BME280;58572;48.110;19.838;2023-07-29T03:14:56;97386.91;;;19.62;77.94
70921;BME280;58572;48.110;19.838;2023-07-29T03:17:25;97381.50;;;19.82;77.47
70921;BME280;58572;48.110;19.838;2023-07-29T03:19:52;97384.34;;;19.85;77.25
70921;BME280;58572;48.110;19.838;2023-07-29T03:22:21;97382.31;;;19.82;77.13
70921;BME280;58572;48.110;19.838;2023-07-29T03:24:48;97389.00;;;19.81;76.73
70921;BME280;58572;48.110;19.838;2023-07-29T03:27:16;97390.06;;;19.92;76.12
70921;BME280;58572;48.110;19.838;2023-07-29T03:29:43;97392.53;;;19.82;76.90
70921;BME280;58572;48.110;19.838;2023-07-29T03:32:11;97391.31;;;19.79;76.97
70921;BME280;58572;48.110;19.838;2023-07-29T03:34:38;97382.94;;;19.91;76.26
70921;BME280;58572;48.110;19.838;2023-07-29T03:37:06;97354.56;;;19.47;76.90
70921;BME280;58572;48.110;19.838;2023-07-29T03:39:34;97392.81;;;19.49;77.91
70921;BME280;58572;48.110;19.838;2023-07-29T03:42:01;97386.91;;;19.34;78.81
70921;BME280;58572;48.110;19.838;2023-07-29T03:44:28;97393.53;;;19.45;78.32
70921;BME280;58572;48.110;19.838;2023-07-29T03:46:56;97388.69;;;19.70;76.95
70921;BME280;58572;48.110;19.838;2023-07-29T03:49:23;97393.94;;;19.75;76.87
70921;BME280;58572;48.110;19.838;2023-07-29T03:51:51;97400.44;;;19.67;77.20
70921;BME280;58572;48.110;19.838;2023-07-29T03:54:18;97396.50;;;19.68;76.94
70921;BME280;58572;48.110;19.838;2023-07-29T03:56:46;97389.16;;;19.88;76.13
70921;BME280;58572;48.110;19.838;2023-07-29T03:59:14;97394.06;;;19.95;75.71
70921;BME280;58572;48.110;19.838;2023-07-29T04:01:41;97376.50;;;19.71;75.88
70921;BME280;58572;48.110;19.838;2023-07-29T04:04:08;97393.63;;;19.93;75.51
70921;BME280;58572;48.110;19.838;2023-07-29T04:06:35;97401.97;;;19.81;75.96
70921;BME280;58572;48.110;19.838;2023-07-29T04:09:03;97404.41;;;19.54;77.29
70921;BME280;58572;48.110;19.838;2023-07-29T04:11:30;97410.50;;;19.48;77.59
70921;BME280;58572;48.110;19.838;2023-07-29T04:13:58;97408.88;;;19.59;77.19
70921;BME280;58572;48.110;19.838;2023-07-29T04:16:26;97411.88;;;19.26;79.72
70921;BME280;58572;48.110;19.838;2023-07-29T04:18:54;97416.03;;;18.92;83.06
70921;BME280;58572;48.110;19.838;2023-07-29T04:21:21;97417.81;;;18.47;87.09
70921;BME280;58572;48.110;19.838;2023-07-29T04:23:48;97413.34;;;19.07;85.21
70921;BME280;58572;48.110;19.838;2023-07-29T04:26:15;97405.78;;;19.04;86.14
70921;BME280;58572;48.110;19.838;2023-07-29T04:28:42;97407.66;;;19.44;79.12
70921;BME280;58572;48.110;19.838;2023-07-29T04:31:11;97395.44;;;19.57;77.66
70921;BME280;58572;48.110;19.838;2023-07-29T04:33:38;97405.28;;;19.86;76.98
70921;BME280;58572;48.110;19.838;2023-07-29T04:36:05;97384.50;;;19.76;76.58
70921;BME280;58572;48.110;19.838;2023-07-29T04:38:33;97400.81;;;19.97;76.02
70921;BME280;58572;48.110;19.838;2023-07-29T04:41:00;97397.25;;;19.97;76.09
70921;BME280;58572;48.110;19.838;2023-07-29T04:43:30;97380.69;;;19.65;76.84
70921;BME280;58572;48.110;19.838;2023-07-29T04:45:57;97407.28;;;19.73;76.69
70921;BME280;58572;48.110;19.838;2023-07-29T04:48:26;97403.28;;;18.99;82.88
70921;BME280;58572;48.110;19.838;2023-07-29T04:50:53;97409.94;;;19.70;78.08
70921;BME280;58572;48.110;19.838;2023-07-29T04:53:20;97414.97;;;19.80;76.83
70921;BME280;58572;48.110;19.838;2023-07-29T04:55:48;97415.09;;;19.56;79.54
70921;BME280;58572;48.110;19.838;2023-07-29T04:58:15;97411.03;;;19.37;80.43
70921;BME280;58572;48.110;19.838;2023-07-29T05:00:42;97408.44;;;19.29;84.29
70921;BME280;58572;48.110;19.838;2023-07-29T05:03:09;97410.88;;;19.46;79.93
70921;BME280;58572;48.110;19.838;2023-07-29T05:05:37;97415.13;;;19.43;84.39
70921;BME280;58572;48.110;19.838;2023-07-29T05:08:05;97417.88;;;19.71;78.63
70921;BME280;58572;48.110;19.838;2023-07-29T05:10:32;97419.41;;;19.13;84.10
70921;BME280;58572;48.110;19.838;2023-07-29T05:12:59;97421.69;;;19.39;83.19
70921;BME280;58572;48.110;19.838;2023-07-29T05:15:26;97419.50;;;19.88;78.20
70921;BME280;58572;48.110;19.838;2023-07-29T05:17:53;97417.78;;;19.68;81.69
70921;BME280;58572;48.110;19.838;2023-07-29T05:20:21;97426.03;;;19.52;80.88
70921;BME280;58572;48.110;19.838;2023-07-29T05:22:50;97370.66;;;19.45;83.44
70921;BME280;58572;48.110;19.838;2023-07-29T05:25:17;97414.84;;;19.76;84.72
70921;BME280;58572;48.110;19.838;2023-07-29T05:27:44;97413.78;;;19.65;79.95
70921;BME280;58572;48.110;19.838;2023-07-29T05:30:11;97413.38;;;19.79;79.08
70921;BME280;58572;48.110;19.838;2023-07-29T05:32:38;97423.91;;;19.61;82.09
70921;BME280;58572;48.110;19.838;2023-07-29T05:35:06;97418.59;;;19.40;89.01
70921;BME280;58572;48.110;19.838;2023-07-29T05:37:34;97416.38;;;19.46;84.67
70921;BME280;58572;48.110;19.838;2023-07-29T05:40:03;97419.50;;;19.44;87.78
70921;BME280;58572;48.110;19.838;2023-07-29T05:42:31;97410.41;;;19.72;85.65
70921;BME280;58572;48.110;19.838;2023-07-29T05:44:58;97423.25;;;19.24;93.27
70921;BME280;58572;48.110;19.838;2023-07-29T05:47:25;97389.41;;;19.67;82.63
70921;BME280;58572;48.110;19.838;2023-07-29T05:49:52;97432.34;;;19.25;93.43
70921;BME280;58572;48.110;19.838;2023-07-29T05:52:20;97424.72;;;19.62;90.68
70921;BME280;58572;48.110;19.838;2023-07-29T05:54:47;97426.09;;;19.84;85.17
70921;BME280;58572;48.110;19.838;2023-07-29T05:57:16;97423.66;;;19.66;91.61
70921;BME280;58572;48.110;19.838;2023-07-29T05:59:43;97431.06;;;20.25;86.24
70921;BME280;58572;48.110;19.838;2023-07-29T06:02:10;97426.59;;;19.73;92.12
70921;BME280;58572;48.110;19.838;2023-07-29T06:04:37;97418.94;;;19.67;92.00
70921;BME280;58572;48.110;19.838;2023-07-29T06:07:05;97437.31;;;20.22;87.79
70921;BME280;58572;48.110;19.838;2023-07-29T06:09:32;97441.22;;;20.53;87.94
70921;BME280;58572;48.110;19.838;2023-07-29T06:11:59;97439.25;;;20.37;88.10
70921;BME280;58572;48.110;19.838;2023-07-29T06:14:28;97436.16;;;20.39;85.17
70921;BME280;58572;48.110;19.838;2023-07-29T06:16:54;97435.84;;;20.60;87.18
70921;BME280;58572;48.110;19.838;2023-07-29T06:19:21;97436.97;;;20.75;85.65
70921;BME280;58572;48.110;19.838;2023-07-29T06:21:48;97437.84;;;20.79;86.52
70921;BME280;58572;48.110;19.838;2023-07-29T06:24:15;97436.63;;;20.76;83.87
70921;BME280;58572;48.110;19.838;2023-07-29T06:26:43;97437.47;;;20.96;80.58
70921;BME280;58572;48.110;19.838;2023-07-29T06:29:10;97444.00;;;20.88;84.59
70921;BME280;58572;48.110;19.838;2023-07-29T06:31:38;97437.56;;;20.99;85.32
70921;BME280;58572;48.110;19.838;2023-07-29T06:34:05;97445.34;;;20.78;86.69
70921;BME280;58572;48.110;19.838;2023-07-29T06:36:33;97446.75;;;21.23;82.11
70921;BME280;58572;48.110;19.838;2023-07-29T06:39:00;97453.03;;;20.69;87.19
70921;BME280;58572;48.110;19.838;2023-07-29T06:41:27;97455.22;;;21.14;80.89
70921;BME280;58572;48.110;19.838;2023-07-29T06:43:54;97463.81;;;20.74;87.40
70921;BME280;58572;48.110;19.838;2023-07-29T06:46:21;97465.91;;;20.96;85.18
70921;BME280;58572;48.110;19.838;2023-07-29T06:48:50;97471.28;;;21.24;83.36
70921;BME280;58572;48.110;19.838;2023-07-29T06:51:17;97464.75;;;20.97;85.36
70921;BME280;58572;48.110;19.838;2023-07-29T06:53:44;97465.38;;;21.45;79.60
70921;BME280;58572;48.110;19.838;2023-07-29T06:56:11;97462.91;;;20.86;83.91
70921;BME280;58572;48.110;19.838;2023-07-29T06:58:38;97466.03;;;20.84;85.60
70921;BME280;58572;48.110;19.838;2023-07-29T07:01:06;97470.63;;;21.31;80.49
70921;BME280;58572;48.110;19.838;2023-07-29T07:03:33;97463.66;;;21.02;86.03
70921;BME280;58572;48.110;19.838;2023-07-29T07:06:01;97465.75;;;21.24;81.58
70921;BME280;58572;48.110;19.838;2023-07-29T07:08:28;97476.06;;;21.66;81.23
70921;BME280;58572;48.110;19.838;2023-07-29T07:10:56;97466.09;;;21.42;83.53
70921;BME280;58572;48.110;19.838;2023-07-29T07:13:23;97457.44;;;21.44;80.44
70921;BME280;58572;48.110;19.838;2023-07-29T07:15:51;97463.81;;;21.67;81.36
70921;BME280;58572;48.110;19.838;2023-07-29T07:18:21;97460.53;;;21.81;80.75
70921;BME280;58572;48.110;19.838;2023-07-29T07:20:49;97470.28;;;21.75;80.74
70921;BME280;58572;48.110;19.838;2023-07-29T07:23:18;97469.41;;;21.90;80.33
70921;BME280;58572;48.110;19.838;2023-07-29T07:25:45;97461.31;;;21.81;80.11
70921;BME280;58572;48.110;19.838;2023-07-29T07:28:12;97473.66;;;21.64;80.64
70921;BME280;58572;48.110;19.838;2023-07-29T07:30:39;97469.94;;;22.18;79.32
70921;BME280;58572;48.110;19.838;2023-07-29T07:33:07;97472.66;;;22.38;78.11
70921;BME280;58572;48.110;19.838;2023-07-29T07:35:34;97472.75;;;21.99;80.00
70921;BME280;58572;48.110;19.838;2023-07-29T07:38:01;97474.00;;;22.24;78.50
70921;BME280;58572;48.110;19.838;2023-07-29T07:40:31;97442.81;;;22.54;75.91
70921;BME280;58572;48.110;19.838;2023-07-29T07:42:58;97475.66;;;22.52;77.07
70921;BME280;58572;48.110;19.838;2023-07-29T07:45:25;97444.34;;;22.25;77.20
70921;BME280;58572;48.110;19.838;2023-07-29T07:47:52;97475.97;;;22.24;79.22
70921;BME280;58572;48.110;19.838;2023-07-29T07:50:20;97460.88;;;22.44;77.81
70921;BME280;58572;48.110;19.838;2023-07-29T07:52:47;97469.22;;;22.71;76.01
70921;BME280;58572;48.110;19.838;2023-07-29T07:55:14;97466.75;;;22.16;80.07
70921;BME280;58572;48.110;19.838;2023-07-29T07:57:42;97471.13;;;22.67;78.05
70921;BME280;58572;48.110;19.838;2023-07-29T08:00:10;97469.69;;;23.29;77.32
70921;BME280;58572;48.110;19.838;2023-07-29T08:02:38;97465.59;;;23.53;74.88
70921;BME280;58572;48.110;19.838;2023-07-29T08:05:05;97456.66;;;23.33;75.08
70921;BME280;58572;48.110;19.838;2023-07-29T08:07:33;97457.13;;;23.09;75.61
70921;BME280;58572;48.110;19.838;2023-07-29T08:10:00;97451.38;;;23.54;72.94
70921;BME280;58572;48.110;19.838;2023-07-29T08:12:27;97452.81;;;23.45;73.22
70921;BME280;58572;48.110;19.838;2023-07-29T08:14:56;97443.78;;;23.18;74.71
70921;BME280;58572;48.110;19.838;2023-07-29T08:17:23;97453.09;;;22.27;77.95
70921;BME280;58572;48.110;19.838;2023-07-29T08:19:50;97448.38;;;23.07;75.79
70921;BME280;58572;48.110;19.838;2023-07-29T08:22:17;97443.09;;;23.58;74.04
70921;BME280;58572;48.110;19.838;2023-07-29T08:24:45;97446.56;;;23.51;73.50
70921;BME280;58572;48.110;19.838;2023-07-29T08:27:13;97447.53;;;23.03;77.50
70921;BME280;58572;48.110;19.838;2023-07-29T08:29:40;97445.13;;;23.31;76.82
70921;BME280;58572;48.110;19.838;2023-07-29T08:32:09;97445.16;;;23.01;78.91
70921;BME280;58572;48.110;19.838;2023-07-29T08:34:36;97441.88;;;23.55;77.07
70921;BME280;58572;48.110;19.838;2023-07-29T08:37:03;97434.38;;;23.93;76.38
70921;BME280;58572;48.110;19.838;2023-07-29T08:39:30;97435.97;;;23.94;76.97
70921;BME280;58572;48.110;19.838;2023-07-29T08:42:01;97434.47;;;23.67;79.08
70921;BME280;58572;48.110;19.838;2023-07-29T08:44:35;97421.06;;;23.39;76.03
70921;BME280;58572;48.110;19.838;2023-07-29T08:47:03;97407.81;;;24.40;72.93
70921;BME280;58572;48.110;19.838;2023-07-29T08:49:32;97438.00;;;24.45;74.65
70921;BME280;58572;48.110;19.838;2023-07-29T08:52:01;97436.69;;;24.87;74.44
70921;BME280;58572;48.110;19.838;2023-07-29T08:54:28;97432.00;;;24.39;72.94
70921;BME280;58572;48.110;19.838;2023-07-29T08:56:55;97427.16;;;24.88;72.21
70921;BME280;58572;48.110;19.838;2023-07-29T08:59:23;97432.66;;;24.73;73.61
70921;BME280;58572;48.110;19.838;2023-07-29T09:01:51;97432.09;;;25.05;71.19
70921;BME280;58572;48.110;19.838;2023-07-29T09:04:21;97448.59;;;23.92;70.11
70921;BME280;58572;48.110;19.838;2023-07-29T09:06:51;97439.75;;;24.19;71.96
70921;BME280;58572;48.110;19.838;2023-07-29T09:09:18;97430.78;;;24.92;70.01
70921;BME280;58572;48.110;19.838;2023-07-29T09:11:45;97432.63;;;24.70;73.59
70921;BME280;58572;48.110;19.838;2023-07-29T09:14:13;97429.81;;;24.15;72.32
70921;BME280;58572;48.110;19.838;2023-07-29T09:16:41;97438.41;;;24.98;68.77
70921;BME280;58572;48.110;19.838;2023-07-29T09:19:08;97445.28;;;25.19;68.60
70921;BME280;58572;48.110;19.838;2023-07-29T09:21:38;97442.66;;;24.89;69.13
70921;BME280;58572;48.110;19.838;2023-07-29T09:24:07;97427.59;;;25.69;68.29
70921;BME280;58572;48.110;19.838;2023-07-29T09:26:34;97434.66;;;25.49;68.18
70921;BME280;58572;48.110;19.838;2023-07-29T09:29:02;97431.34;;;25.15;71.59
70921;BME280;58572;48.110;19.838;2023-07-29T09:31:29;97427.88;;;25.39;67.11
70921;BME280;58572;48.110;19.838;2023-07-29T09:33:57;97418.03;;;25.67;66.95
70921;BME280;58572;48.110;19.838;2023-07-29T09:36:25;97411.19;;;25.46;69.04
70921;BME280;58572;48.110;19.838;2023-07-29T09:38:53;97422.91;;;26.23;67.47
70921;BME280;58572;48.110;19.838;2023-07-29T09:41:24;97418.13;;;26.02;67.91
70921;BME280;58572;48.110;19.838;2023-07-29T09:43:56;97422.84;;;25.91;67.60
70921;BME280;58572;48.110;19.838;2023-07-29T09:46:25;97417.78;;;25.06;71.45
70921;BME280;58572;48.110;19.838;2023-07-29T09:48:53;97417.38;;;26.34;67.17
70921;BME280;58572;48.110;19.838;2023-07-29T09:51:22;97306.25;;;24.53;68.12
70921;BME280;58572;48.110;19.838;2023-07-29T09:53:49;97409.91;;;25.19;69.82
70921;BME280;58572;48.110;19.838;2023-07-29T09:56:17;97408.00;;;25.44;67.00
70921;BME280;58572;48.110;19.838;2023-07-29T09:58:46;97399.03;;;26.54;65.90
70921;BME280;58572;48.110;19.838;2023-07-29T10:01:14;97398.22;;;26.68;66.35
70921;BME280;58572;48.110;19.838;2023-07-29T10:03:42;97364.81;;;26.32;64.94
70921;BME280;58572;48.110;19.838;2023-07-29T10:06:11;97374.31;;;26.60;65.31
70921;BME280;58572;48.110;19.838;2023-07-29T10:08:39;97395.38;;;26.82;64.75
70921;BME280;58572;48.110;19.838;2023-07-29T10:11:07;97399.03;;;26.47;65.58
70921;BME280;58572;48.110;19.838;2023-07-29T10:13:34;97406.97;;;26.73;65.35
70921;BME280;58572;48.110;19.838;2023-07-29T10:16:04;97397.03;;;26.30;61.97
70921;BME280;58572;48.110;19.838;2023-07-29T10:18:32;97398.22;;;26.22;62.53
70921;BME280;58572;48.110;19.838;2023-07-29T10:21:01;97394.22;;;25.98;63.88
70921;BME280;58572;48.110;19.838;2023-07-29T10:23:32;97394.06;;;27.29;62.63
70921;BME280;58572;48.110;19.838;2023-07-29T10:26:03;97395.00;;;26.73;60.49
70921;BME280;58572;48.110;19.838;2023-07-29T10:28:32;97312.63;;;26.47;60.96
70921;BME280;58572;48.110;19.838;2023-07-29T10:31:00;97392.31;;;27.64;59.39
70921;BME280;58572;48.110;19.838;2023-07-29T10:33:30;97390.09;;;27.30;60.93
70921;BME280;58572;48.110;19.838;2023-07-29T10:35:58;97399.16;;;27.49;60.87
70921;BME280;58572;48.110;19.838;2023-07-29T10:38:25;97407.50;;;27.56;58.30
70921;BME280;58572;48.110;19.838;2023-07-29T10:40:54;97407.78;;;26.63;62.00
70921;BME280;58572;48.110;19.838;2023-07-29T10:43:25;97401.84;;;26.33;65.46
70921;BME280;58572;48.110;19.838;2023-07-29T10:45:55;97399.00;;;26.61;59.40
70921;BME280;58572;48.110;19.838;2023-07-29T10:48:42;97389.22;;;27.44;61.80
70921;BME280;58572;48.110;19.838;2023-07-29T10:51:28;97384.81;;;27.47;59.33
70921;BME280;58572;48.110;19.838;2023-07-29T10:53:57;97387.50;;;26.38;63.95
70921;BME280;58572;48.110;19.838;2023-07-29T10:56:27;97369.44;;;27.10;59.08
70921;BME280;58572;48.110;19.838;2023-07-29T10:58:59;97366.50;;;28.05;59.38
70921;BME280;58572;48.110;19.838;2023-07-29T11:01:30;97375.06;;;26.82;58.95
70921;BME280;58572;48.110;19.838;2023-07-29T11:04:24;97370.44;;;27.48;59.41
70921;BME280;58572;48.110;19.838;2023-07-29T11:07:24;97365.41;;;27.91;58.18
70921;BME280;58572;48.110;19.838;2023-07-29T11:09:55;97358.72;;;27.78;58.96
70921;BME280;58572;48.110;19.838;2023-07-29T11:12:36;97352.03;;;28.61;58.45
70921;BME280;58572;48.110;19.838;2023-07-29T11:15:11;97360.13;;;28.01;56.65
70921;BME280;58572;48.110;19.838;2023-07-29T11:17:40;97362.75;;;27.70;59.58
70921;BME280;58572;48.110;19.838;2023-07-29T11:20:10;97360.31;;;26.85;58.51
70921;BME280;58572;48.110;19.838;2023-07-29T11:22:38;97343.19;;;26.79;60.42
70921;BME280;58572;48.110;19.838;2023-07-29T11:25:07;97369.44;;;27.10;59.66
70921;BME280;58572;48.110;19.838;2023-07-29T11:27:35;97370.25;;;25.51;58.52
70921;BME280;58572;48.110;19.838;2023-07-29T11:30:03;97373.50;;;26.73;58.26
70921;BME280;58572;48.110;19.838;2023-07-29T11:32:32;97374.66;;;26.80;57.51
70921;BME280;58572;48.110;19.838;2023-07-29T11:35:02;97358.28;;;26.96;56.18
70921;BME280;58572;48.110;19.838;2023-07-29T11:37:32;97371.47;;;26.85;58.60
70921;BME280;58572;48.110;19.838;2023-07-29T11:40:00;97375.88;;;26.71;57.61
70921;BME280;58572;48.110;19.838;2023-07-29T11:42:28;97365.97;;;27.69;59.42
70921;BME280;58572;48.110;19.838;2023-07-29T11:44:57;97368.78;;;27.65;56.01
70921;BME280;58572;48.110;19.838;2023-07-29T11:47:24;97357.28;;;28.08;54.82
70921;BME280;58572;48.110;19.838;2023-07-29T11:49:52;97360.41;;;27.58;56.52
70921;BME280;58572;48.110;19.838;2023-07-29T11:52:19;97355.69;;;28.07;53.90
70921;BME280;58572;48.110;19.838;2023-07-29T11:54:48;97352.38;;;28.67;56.61
70921;BME280;58572;48.110;19.838;2023-07-29T11:57:16;97352.16;;;28.51;54.49
70921;BME280;58572;48.110;19.838;2023-07-29T11:59:44;97366.59;;;27.21;62.46
70921;BME280;58572;48.110;19.838;2023-07-29T12:02:14;97359.16;;;26.71;60.39
70921;BME280;58572;48.110;19.838;2023-07-29T12:04:43;97346.72;;;27.81;55.44
70921;BME280;58572;48.110;19.838;2023-07-29T12:07:12;97349.22;;;28.65;55.75
70921;BME280;58572;48.110;19.838;2023-07-29T12:09:40;97352.28;;;27.85;61.92
70921;BME280;58572;48.110;19.838;2023-07-29T12:12:09;97354.84;;;28.17;58.99
70921;BME280;58572;48.110;19.838;2023-07-29T12:14:36;97340.84;;;28.20;57.70
70921;BME280;58572;48.110;19.838;2023-07-29T12:17:03;97349.00;;;28.83;53.57
70921;BME280;58572;48.110;19.838;2023-07-29T12:19:32;97328.38;;;28.70;55.87
70921;BME280;58572;48.110;19.838;2023-07-29T12:22:01;97315.97;;;28.33;55.38
70921;BME280;58572;48.110;19.838;2023-07-29T12:24:29;97341.50;;;29.14;53.63
70921;BME280;58572;48.110;19.838;2023-07-29T12:26:57;97351.03;;;27.27;55.81
70921;BME280;58572;48.110;19.838;2023-07-29T12:29:25;97349.16;;;27.76;55.48
70921;BME280;58572;48.110;19.838;2023-07-29T12:31:57;97336.03;;;26.71;54.50
70921;BME280;58572;48.110;19.838;2023-07-29T12:34:25;97338.84;;;28.24;56.09
70921;BME280;58572;48.110;19.838;2023-07-29T12:36:54;97319.72;;;27.64;57.23
70921;BME280;58572;48.110;19.838;2023-07-29T12:39:24;97320.00;;;27.11;58.55
70921;BME280;58572;48.110;19.838;2023-07-29T12:41:52;97345.34;;;28.04;58.75
70921;BME280;58572;48.110;19.838;2023-07-29T12:44:20;97340.97;;;28.03;59.37
70921;BME280;58572;48.110;19.838;2023-07-29T12:46:49;97343.31;;;28.08;57.53
70921;BME280;58572;48.110;19.838;2023-07-29T12:49:16;97333.03;;;28.83;57.55
70921;BME280;58572;48.110;19.838;2023-07-29T12:51:43;97342.28;;;27.87;56.05
70921;BME280;58572;48.110;19.838;2023-07-29T12:54:11;97347.44;;;27.26;56.52
70921;BME280;58572;48.110;19.838;2023-07-29T12:56:38;97276.72;;;26.60;60.51